Time;durP1;ratioP1;P1;durP2;ratioP2;P2;SDS_P1;SDS_P2;PMS_P1;PMS_P2;Temp;Humidity;BMP_temperature;BMP_pressure;BME280_temperature;BME280_humidity;BME280_pressure;Samples;Min_cycle;Max_cycle;Signal;HPM_P1;HPM_P2
2022/06/26 00:02:36;;;;;;;;;;;18.80;99.90;;;;;;8367768;28;19920;-72
2022/06/26 00:06:38;;;;;;;;;;;18.80;99.90;;;;;;8367736;28;19921;-72
2022/06/26 00:10:41;;;;;;;;;;;18.70;99.90;;;;;;8357902;28;19927;-72
2022/06/26 00:14:43;;;;;;;;;;;18.70;99.90;;;;;;8367676;28;19928;-72
2022/06/26 00:18:44;;;;;;;;;;;18.70;99.90;;;;;;8364521;28;19928;-72
2022/06/26 00:22:46;;;;;;;;;;;18.70;99.90;;;;;;8340841;28;20598;-72
2022/06/26 00:26:48;;;;;;;;;;;18.70;99.90;;;;;;8362929;28;19928;-72
2022/06/26 00:30:49;;;;;;;;;;;18.70;99.90;;;;;;8361438;28;19921;-72
2022/06/26 00:34:51;;;;;;;;;;;18.70;99.90;;;;;;8369248;28;19970;-72
2022/06/26 00:38:53;;;;;;;;;;;18.70;99.90;;;;;;8376417;28;19927;-72
2022/06/26 00:42:54;;;;;;;;;;;18.70;99.90;;;;;;8369698;28;20311;-72
2022/06/26 00:46:56;;;;;;;;;;;18.70;99.90;;;;;;8365881;28;20670;-72
2022/06/26 00:50:58;;;;;;;;;;;18.60;99.90;;;;;;8362201;28;20318;-72
2022/06/26 00:55:00;;;;;;;;;;;18.60;99.90;;;;;;8355412;28;19921;-72
2022/06/26 00:59:02;;;;;;;;;;;18.60;99.90;;;;;;8368911;28;19947;-72
2022/06/26 01:03:04;;;;;;;;;;;18.60;99.90;;;;;;8373883;28;19924;-73
2022/06/26 01:07:06;;;;;;;;;;;18.50;99.90;;;;;;8361112;28;20007;-72
2022/06/26 01:11:17;;;;;;;;;;;18.50;99.90;;;;;;8367100;28;19932;-72
2022/06/26 01:15:19;;;;;;;;;;;18.50;99.90;;;;;;8337851;28;20023;-73
2022/06/26 01:19:21;;;;;;;;;;;18.50;99.90;;;;;;8370756;28;20038;-72
2022/06/26 01:23:23;;;;;;;;;;;18.40;99.90;;;;;;8334926;28;19921;-72
2022/06/26 01:27:24;;;;;;;;;;;18.40;99.90;;;;;;8343728;28;19927;-72
2022/06/26 01:31:26;;;;;;;;;;;18.30;99.90;;;;;;8373282;28;20356;-72
2022/06/26 01:35:28;;;;;;;;;;;18.30;99.90;;;;;;8345464;28;20350;-73
2022/06/26 01:39:29;;;;;;;;;;;18.30;99.90;;;;;;8363366;28;20335;-72
2022/06/26 01:43:32;;;;;;;;;;;18.20;99.90;;;;;;8349018;28;20373;-72
2022/06/26 01:47:34;;;;;;;;;;;18.20;99.90;;;;;;8356592;28;19927;-72
2022/06/26 01:51:35;;;;;;;;;;;18.20;99.90;;;;;;8364803;28;19974;-71
2022/06/26 01:55:37;;;;;;;;;;;18.20;99.90;;;;;;8348194;28;19936;-71
2022/06/26 01:59:39;;;;;;;;;;;18.10;99.90;;;;;;8348732;28;19943;-72
2022/06/26 02:03:41;;;;;;;;;;;18.10;99.90;;;;;;8358247;28;19920;-71
2022/06/26 02:07:42;;;;;;;;;;;18.00;99.90;;;;;;8371593;28;19920;-72
2022/06/26 02:16:06;;;;;;;;;;;17.90;99.90;;;;;;8373025;28;19921;-72
2022/06/26 02:20:08;;;;;;;;;;;17.90;99.90;;;;;;8381052;28;19927;-72
2022/06/26 02:24:10;;;;;;;;;;;17.90;99.90;;;;;;8360254;28;20406;-72
2022/06/26 02:28:12;;;;;;;;;;;17.80;99.90;;;;;;8383800;28;19920;-72
2022/06/26 02:32:14;;;;;;;;;;;17.80;99.90;;;;;;8385938;28;19990;-72
2022/06/26 02:36:15;;;;;;;;;;;17.80;99.90;;;;;;8359871;28;19935;-72
2022/06/26 02:40:19;;;;;;;;;;;17.80;99.90;;;;;;8369358;28;19928;-72
2022/06/26 02:44:21;;;;;;;;;;;17.70;99.90;;;;;;8374351;28;19927;-72
2022/06/26 02:48:23;;;;;;;;;;;17.70;99.90;;;;;;8380152;28;19936;-72
2022/06/26 02:52:25;;;;;;;;;;;17.70;99.90;;;;;;8344274;28;19986;-72
2022/06/26 02:56:27;;;;;;;;;;;17.70;99.90;;;;;;8350674;28;19932;-72
2022/06/26 03:00:29;;;;;;;;;;;17.60;99.90;;;;;;8394963;28;19920;-72
2022/06/26 03:04:30;;;;;;;;;;;17.60;99.90;;;;;;8374782;28;19920;-72
2022/06/26 03:08:32;;;;;;;;;;;17.50;99.90;;;;;;8382437;28;19925;-72
2022/06/26 03:12:34;;;;;;;;;;;17.50;99.90;;;;;;8383924;28;19920;-73
2022/06/26 03:16:35;;;;;;;;;;;17.50;99.90;;;;;;8352279;28;19920;-72
2022/06/26 03:20:39;;;;;;;;;;;17.50;99.90;;;;;;8356077;28;19950;-72
2022/06/26 03:24:41;;;;;;;;;;;17.50;99.90;;;;;;8366130;28;19927;-72
2022/06/26 03:28:42;;;;;;;;;;;17.50;99.90;;;;;;8382411;28;20406;-72
2022/06/26 03:32:44;;;;;;;;;;;17.40;99.90;;;;;;8366482;28;19927;-72
2022/06/26 03:36:46;;;;;;;;;;;17.40;99.90;;;;;;8373192;28;19924;-72
2022/06/26 03:40:47;;;;;;;;;;;17.40;99.90;;;;;;8376236;28;19920;-72
2022/06/26 03:44:49;;;;;;;;;;;17.40;99.90;;;;;;8358038;28;20294;-72
2022/06/26 03:48:51;;;;;;;;;;;17.30;99.90;;;;;;8360424;28;19927;-72
2022/06/26 03:52:52;;;;;;;;;;;17.30;99.90;;;;;;8362751;28;19969;-73
2022/06/26 03:56:54;;;;;;;;;;;17.20;99.90;;;;;;8330317;28;19932;-72
2022/06/26 04:00:55;;;;;;;;;;;17.20;99.90;;;;;;8346455;28;19920;-72
2022/06/26 04:04:57;;;;;;;;;;;17.10;99.90;;;;;;8366922;28;19928;-72
2022/06/26 04:08:59;;;;;;;;;;;17.10;99.90;;;;;;8346123;28;19928;-72
2022/06/26 04:13:01;;;;;;;;;;;17.00;99.90;;;;;;8356218;28;20260;-72
2022/06/26 04:17:03;;;;;;;;;;;17.00;99.90;;;;;;8361320;28;19931;-72
2022/06/26 04:21:05;;;;;;;;;;;17.00;99.90;;;;;;8339489;28;19928;-73
2022/06/26 04:25:07;;;;;;;;;;;16.90;99.90;;;;;;8354984;28;19920;-72
2022/06/26 04:29:08;;;;;;;;;;;16.90;99.90;;;;;;8369290;28;20276;-72
2022/06/26 04:33:10;;;;;;;;;;;17.00;99.90;;;;;;8366809;28;20387;-72
2022/06/26 04:37:12;;;;;;;;;;;17.10;99.90;;;;;;8343240;28;19920;-73
2022/06/26 04:41:31;;;;;;;;;;;17.10;99.90;;;;;;8356384;28;19925;-73
2022/06/26 04:45:33;;;;;;;;;;;17.10;99.90;;;;;;8352605;28;19921;-73
2022/06/26 04:49:35;;;;;;;;;;;17.10;99.90;;;;;;8371287;28;19920;-73
2022/06/26 04:53:37;;;;;;;;;;;17.10;99.90;;;;;;8362486;28;19921;-73
2022/06/26 04:57:39;;;;;;;;;;;17.20;99.90;;;;;;8355148;28;19921;-73
2022/06/26 05:01:40;;;;;;;;;;;17.20;99.90;;;;;;8361175;28;19921;-73
2022/06/26 05:05:42;;;;;;;;;;;17.30;99.90;;;;;;8354124;28;19966;-73
2022/06/26 05:09:43;;;;;;;;;;;17.40;99.90;;;;;;8356026;28;19932;-73
2022/06/26 05:13:46;;;;;;;;;;;17.40;99.90;;;;;;8358562;28;19921;-73
2022/06/26 05:17:47;;;;;;;;;;;17.40;99.90;;;;;;8351719;28;19927;-73
2022/06/26 05:21:49;;;;;;;;;;;17.40;99.90;;;;;;8336228;28;19921;-73
2022/06/26 05:25:51;;;;;;;;;;;17.50;99.90;;;;;;8344816;28;20391;-73
2022/06/26 05:29:53;;;;;;;;;;;17.50;99.90;;;;;;8353577;28;19929;-73
2022/06/26 05:33:55;;;;;;;;;;;17.60;99.90;;;;;;8356270;28;19929;-72
2022/06/26 05:37:56;;;;;;;;;;;17.60;99.90;;;;;;8332885;28;19956;-73
2022/06/26 05:41:58;;;;;;;;;;;17.50;99.90;;;;;;8353804;28;19921;-73
2022/06/26 05:46:02;;;;;;;;;;;17.50;99.90;;;;;;8359464;28;19921;-73
2022/06/26 05:50:04;;;;;;;;;;;17.40;99.90;;;;;;8349161;28;19931;-72
2022/06/26 05:54:06;;;;;;;;;;;17.40;99.90;;;;;;8367340;28;20000;-73
2022/06/26 05:58:08;;;;;;;;;;;17.30;99.90;;;;;;8362209;28;19924;-73
2022/06/26 06:02:11;;;;;;;;;;;17.40;99.90;;;;;;8331264;28;20368;-73
2022/06/26 06:06:12;;;;;;;;;;;17.50;99.90;;;;;;8347610;28;19921;-73
2022/06/26 06:10:14;;;;;;;;;;;17.50;99.90;;;;;;8338733;28;20884;-72
2022/06/26 06:14:16;;;;;;;;;;;17.50;99.90;;;;;;8350798;28;19924;-72
2022/06/26 06:18:17;;;;;;;;;;;17.50;99.90;;;;;;8361573;28;19927;-73
2022/06/26 06:22:19;;;;;;;;;;;17.50;99.90;;;;;;8344414;28;19990;-72
2022/06/26 06:26:21;;;;;;;;;;;17.60;99.90;;;;;;8356308;28;19928;-72
2022/06/26 06:30:23;;;;;;;;;;;17.50;99.90;;;;;;8344855;28;19927;-73
2022/06/26 06:34:24;;;;;;;;;;;17.60;99.90;;;;;;8358120;28;19928;-73
2022/06/26 06:38:26;;;;;;;;;;;17.70;99.90;;;;;;8353621;28;19928;-72
2022/06/26 06:42:28;;;;;;;;;;;17.70;99.90;;;;;;8342544;28;19986;-73
2022/06/26 06:46:30;;;;;;;;;;;17.80;99.90;;;;;;8330811;28;19924;-72
2022/06/26 06:50:32;;;;;;;;;;;17.90;99.90;;;;;;8326691;28;21316;-72
2022/06/26 06:54:33;;;;;;;;;;;17.90;99.90;;;;;;8324754;28;19936;-73
2022/06/26 06:58:35;;;;;;;;;;;17.90;99.90;;;;;;8327030;28;19940;-73
2022/06/26 07:02:37;;;;;;;;;;;17.90;99.90;;;;;;8331720;28;20372;-72
2022/06/26 07:06:39;;;;;;;;;;;18.00;99.90;;;;;;8335200;28;19924;-73
2022/06/26 07:10:44;;;;;;;;;;;17.90;99.90;;;;;;8340732;28;19925;-73
2022/06/26 07:14:45;;;;;;;;;;;17.90;99.90;;;;;;8326363;28;20064;-72
2022/06/26 07:18:47;;;;;;;;;;;17.90;99.90;;;;;;8330156;28;19921;-73
2022/06/26 07:22:48;;;;;;;;;;;17.90;99.90;;;;;;8314480;28;19925;-73
2022/06/26 07:26:55;;;;;;;;;;;17.90;99.90;;;;;;8330237;28;19925;-73
2022/06/26 07:30:57;;;;;;;;;;;18.00;99.90;;;;;;8329644;28;19929;-72
2022/06/26 07:34:59;;;;;;;;;;;18.00;99.90;;;;;;8340592;28;20299;-72
2022/06/26 07:39:01;;;;;;;;;;;18.00;99.90;;;;;;8319944;28;19935;-72
2022/06/26 07:43:03;;;;;;;;;;;18.10;99.90;;;;;;8326743;28;19928;-72
2022/06/26 07:47:04;;;;;;;;;;;18.20;99.90;;;;;;8327225;28;19929;-72
2022/06/26 07:51:06;;;;;;;;;;;18.40;99.90;;;;;;8340393;28;19920;-73
2022/06/26 07:55:08;;;;;;;;;;;18.50;99.90;;;;;;8327691;28;20200;-72
2022/06/26 07:59:10;;;;;;;;;;;18.50;99.90;;;;;;8326410;28;19928;-73
2022/06/26 08:03:13;;;;;;;;;;;18.50;99.90;;;;;;8329290;28;19979;-72
2022/06/26 08:07:15;;;;;;;;;;;18.50;99.90;;;;;;8329013;28;19925;-72
2022/06/26 08:11:19;;;;;;;;;;;18.40;99.90;;;;;;8325822;28;19940;-72
2022/06/26 08:15:22;;;;;;;;;;;18.40;99.90;;;;;;8331200;28;19971;-73
2022/06/26 08:19:23;;;;;;;;;;;18.40;99.90;;;;;;8301561;28;19928;-72
2022/06/26 08:23:25;;;;;;;;;;;18.30;99.90;;;;;;8323878;28;20238;-73
2022/06/26 08:27:26;;;;;;;;;;;18.40;99.90;;;;;;8323029;28;20035;-72
2022/06/26 08:31:28;;;;;;;;;;;18.30;99.90;;;;;;8327085;28;19924;-72
2022/06/26 08:35:30;;;;;;;;;;;18.30;99.90;;;;;;8326187;28;19925;-72
2022/06/26 08:39:35;;;;;;;;;;;18.30;99.90;;;;;;8316034;28;19921;-73
2022/06/26 08:43:38;;;;;;;;;;;18.40;99.90;;;;;;8323790;28;19947;-72
2022/06/26 08:47:40;;;;;;;;;;;18.40;99.90;;;;;;8307752;28;19932;-72
2022/06/26 08:51:43;;;;;;;;;;;18.40;99.90;;;;;;8327176;28;19939;-72
2022/06/26 08:55:44;;;;;;;;;;;18.40;99.90;;;;;;8324455;28;19920;-73
2022/06/26 08:59:46;;;;;;;;;;;18.40;99.90;;;;;;8326146;28;19944;-72
2022/06/26 09:03:47;;;;;;;;;;;18.40;99.90;;;;;;8320958;28;19924;-72
2022/06/26 09:07:52;;;;;;;;;;;18.50;99.90;;;;;;8326673;28;19920;-73
2022/06/26 09:11:55;;;;;;;;;;;18.50;99.90;;;;;;8320507;28;19920;-72
2022/06/26 09:15:56;;;;;;;;;;;18.60;99.90;;;;;;8322469;28;19932;-72
2022/06/26 09:19:58;;;;;;;;;;;18.70;99.90;;;;;;8312982;28;19929;-73
2022/06/26 09:24:00;;;;;;;;;;;18.60;99.90;;;;;;8276463;28;20316;-73
2022/06/26 09:28:05;;;;;;;;;;;18.60;99.90;;;;;;8321655;28;19968;-72
2022/06/26 09:32:11;;;;;;;;;;;18.60;99.90;;;;;;8323022;28;19921;-72
2022/06/26 09:36:16;;;;;;;;;;;18.70;99.90;;;;;;8327576;28;19921;-72
2022/06/26 09:40:21;;;;;;;;;;;18.70;99.90;;;;;;8321705;28;20380;-72
2022/06/26 09:44:23;;;;;;;;;;;18.70;99.90;;;;;;8312170;28;19928;-72
2022/06/26 09:48:25;;;;;;;;;;;18.70;99.90;;;;;;8326936;28;19980;-72
2022/06/26 09:52:28;;;;;;;;;;;18.80;99.90;;;;;;8324965;28;19943;-72
2022/06/26 09:56:30;;;;;;;;;;;18.90;99.90;;;;;;8313523;28;19936;-71
2022/06/26 10:00:35;;;;;;;;;;;18.80;99.90;;;;;;8317683;28;20240;-72
2022/06/26 10:09:00;;;;;;;;;;;18.90;99.90;;;;;;8317560;28;19975;-72
2022/06/26 10:13:11;;;;;;;;;;;18.90;99.90;;;;;;8314167;28;19940;-72
2022/06/26 10:17:21;;;;;;;;;;;18.90;99.90;;;;;;8305935;28;19928;-71
2022/06/26 10:21:23;;;;;;;;;;;18.90;99.90;;;;;;8310603;28;19936;-72
2022/06/26 10:25:26;;;;;;;;;;;19.00;99.90;;;;;;8291676;28;19962;-72
2022/06/26 10:29:45;;;;;;;;;;;19.00;99.90;;;;;;8316331;28;19928;-72
2022/06/26 10:33:48;;;;;;;;;;;19.10;99.90;;;;;;8317232;28;19920;-72
2022/06/26 10:37:50;;;;;;;;;;;19.10;99.90;;;;;;8329091;28;20276;-72
2022/06/26 10:46:22;;;;;;;;;;;19.20;99.90;;;;;;8328487;28;20419;-72
2022/06/26 10:50:25;;;;;;;;;;;19.30;99.90;;;;;;8308709;28;19921;-72
2022/06/26 10:54:27;;;;;;;;;;;19.40;99.90;;;;;;8321430;28;19971;-72
2022/06/26 10:58:30;;;;;;;;;;;19.50;99.90;;;;;;8316043;28;19932;-72
2022/06/26 11:02:36;;;;;;;;;;;19.60;99.90;;;;;;8320953;28;19963;-72
2022/06/26 11:06:40;;;;;;;;;;;19.70;99.90;;;;;;8315680;28;19964;-72
2022/06/26 11:10:44;;;;;;;;;;;19.70;99.90;;;;;;8316890;28;19928;-72
2022/06/26 11:14:46;;;;;;;;;;;19.80;99.90;;;;;;8320395;28;19931;-72
2022/06/26 11:18:47;;;;;;;;;;;19.80;99.90;;;;;;8309153;28;20359;-72
2022/06/26 11:22:49;;;;;;;;;;;19.80;99.90;;;;;;8327029;28;19935;-71
2022/06/26 11:26:51;;;;;;;;;;;19.90;99.90;;;;;;8307251;28;19948;-71
2022/06/26 11:30:53;;;;;;;;;;;19.80;99.90;;;;;;8336865;28;19925;-72
2022/06/26 11:34:56;;;;;;;;;;;19.90;99.90;;;;;;8325796;28;19932;-72
2022/06/26 11:38:59;;;;;;;;;;;19.90;99.90;;;;;;8327521;28;20020;-72
2022/06/26 11:43:01;;;;;;;;;;;20.00;99.90;;;;;;8325175;28;20312;-71
2022/06/26 11:47:03;;;;;;;;;;;20.10;99.90;;;;;;8326038;28;19925;-71
2022/06/26 11:51:06;;;;;;;;;;;20.10;99.90;;;;;;8326142;28;20046;-71
2022/06/26 11:55:08;;;;;;;;;;;20.00;99.90;;;;;;8327023;28;21171;-71
2022/06/26 11:59:11;;;;;;;;;;;20.10;99.90;;;;;;8311644;28;19943;-71
2022/06/26 12:03:13;;;;;;;;;;;20.10;99.90;;;;;;8308355;28;19921;-71
2022/06/26 12:07:15;;;;;;;;;;;20.20;99.90;;;;;;8307117;28;20363;-72
2022/06/26 12:11:17;;;;;;;;;;;20.20;99.90;;;;;;8325536;28;19925;-72
2022/06/26 12:15:18;;;;;;;;;;;20.30;99.90;;;;;;8325198;28;19936;-72
2022/06/26 12:19:20;;;;;;;;;;;20.30;99.90;;;;;;8325395;28;19932;-72
2022/06/26 12:23:33;;;;;;;;;;;20.40;99.90;;;;;;8305463;28;19925;-72
2022/06/26 12:27:39;;;;;;;;;;;20.40;99.90;;;;;;8320021;28;19924;-71
2022/06/26 12:31:42;;;;;;;;;;;20.50;99.90;;;;;;8323874;28;19983;-71
2022/06/26 12:35:43;;;;;;;;;;;20.40;99.90;;;;;;8322585;28;20008;-71
2022/06/26 12:39:46;;;;;;;;;;;20.30;99.90;;;;;;8323273;28;19929;-72
2022/06/26 12:43:49;;;;;;;;;;;20.30;99.90;;;;;;8318333;28;19952;-71
2022/06/26 12:47:58;;;;;;;;;;;20.30;99.90;;;;;;8320321;28;19936;-71
2022/06/26 12:51:59;;;;;;;;;;;20.30;99.90;;;;;;8324736;28;19929;-71
2022/06/26 12:56:01;;;;;;;;;;;20.20;99.90;;;;;;8321083;28;19940;-71
2022/06/26 13:00:04;;;;;;;;;;;20.20;99.90;;;;;;8322708;28;19929;-71
2022/06/26 13:04:06;;;;;;;;;;;20.20;99.90;;;;;;8319026;28;19929;-72
2022/06/26 13:08:08;;;;;;;;;;;20.20;99.90;;;;;;8319145;28;20012;-72
2022/06/26 13:12:10;;;;;;;;;;;20.20;99.90;;;;;;8321258;28;20367;-72
2022/06/26 13:16:12;;;;;;;;;;;20.20;99.90;;;;;;8319108;28;19978;-71
2022/06/26 13:20:14;;;;;;;;;;;20.30;99.90;;;;;;8314072;28;19931;-71
2022/06/26 13:24:15;;;;;;;;;;;20.40;99.90;;;;;;8294609;28;19951;-71
2022/06/26 13:28:17;;;;;;;;;;;20.40;99.90;;;;;;8292050;28;19921;-72
2022/06/26 13:32:38;;;;;;;;;;;20.60;99.90;;;;;;8324539;28;20039;-72
2022/06/26 13:36:40;;;;;;;;;;;20.60;99.90;;;;;;8312783;28;19951;-72
2022/06/26 13:40:42;;;;;;;;;;;20.70;99.90;;;;;;8292660;28;19935;-71
2022/06/26 13:44:44;;;;;;;;;;;20.80;99.90;;;;;;8320212;28;19925;-72
2022/06/26 13:48:45;;;;;;;;;;;20.90;99.90;;;;;;8323515;28;19920;-72
2022/06/26 13:52:49;;;;;;;;;;;21.10;99.90;;;;;;8306529;28;19928;-72
2022/06/26 13:56:51;;;;;;;;;;;21.10;99.90;;;;;;8323141;28;19924;-71
2022/06/26 14:00:52;;;;;;;;;;;21.10;99.90;;;;;;8322590;28;19920;-71
2022/06/26 14:04:54;;;;;;;;;;;21.20;99.90;;;;;;8324978;28;19921;-72
2022/06/26 14:08:56;;;;;;;;;;;21.20;99.90;;;;;;8326101;28;20015;-71
2022/06/26 14:12:58;;;;;;;;;;;21.20;99.90;;;;;;8322008;28;19921;-72
2022/06/26 14:16:59;;;;;;;;;;;21.20;99.90;;;;;;8319081;28;19928;-71
2022/06/26 14:21:02;;;;;;;;;;;21.20;99.90;;;;;;8305087;28;19924;-71
2022/06/26 14:29:23;;;;;;;;;;;21.10;99.90;;;;;;8322093;28;20162;-72
2022/06/26 14:33:25;;;;;;;;;;;21.10;99.90;;;;;;8323911;28;19928;-72
2022/06/26 14:37:31;;;;;;;;;;;21.10;99.90;;;;;;8325034;28;20240;-71
2022/06/26 14:41:33;;;;;;;;;;;21.20;99.90;;;;;;8319616;28;20008;-71
2022/06/26 14:45:34;;;;;;;;;;;21.20;99.90;;;;;;8311483;28;20406;-71
2022/06/26 14:49:39;;;;;;;;;;;21.20;99.90;;;;;;8302677;28;20352;-72
2022/06/26 14:53:40;;;;;;;;;;;21.10;99.90;;;;;;8324241;28;20113;-71
2022/06/26 14:57:42;;;;;;;;;;;21.10;99.90;;;;;;8323892;28;19929;-71
2022/06/26 15:01:44;;;;;;;;;;;21.10;99.90;;;;;;8319781;28;19921;-72
2022/06/26 15:05:46;;;;;;;;;;;20.90;99.90;;;;;;8324094;28;20249;-71
2022/06/26 15:09:51;;;;;;;;;;;20.90;99.90;;;;;;8318716;28;19924;-71
2022/06/26 15:13:53;;;;;;;;;;;20.80;99.90;;;;;;8320697;28;19931;-71
2022/06/26 15:17:55;;;;;;;;;;;20.70;99.90;;;;;;8303846;28;19935;-72
2022/06/26 15:21:56;;;;;;;;;;;20.70;99.90;;;;;;8322574;28;22025;-71
2022/06/26 15:25:58;;;;;;;;;;;20.70;99.90;;;;;;8325192;28;20262;-71
2022/06/26 15:30:00;;;;;;;;;;;20.70;99.90;;;;;;8328547;28;20292;-71
2022/06/26 15:34:02;;;;;;;;;;;20.70;99.90;;;;;;8328312;28;19940;-71
2022/06/26 15:38:03;;;;;;;;;;;20.80;99.90;;;;;;8325935;28;19924;-71
2022/06/26 15:42:05;;;;;;;;;;;20.70;99.90;;;;;;8327563;28;19931;-71
2022/06/26 15:46:07;;;;;;;;;;;20.80;99.90;;;;;;8327912;28;20252;-71
2022/06/26 15:50:09;;;;;;;;;;;20.70;99.90;;;;;;8332201;28;19922;-71
2022/06/26 15:54:10;;;;;;;;;;;20.70;99.90;;;;;;8330787;28;19943;-71
2022/06/26 15:58:12;;;;;;;;;;;20.70;99.90;;;;;;8317371;28;19920;-72
2022/06/26 16:02:14;;;;;;;;;;;20.70;99.90;;;;;;8331094;28;19920;-71
2022/06/26 16:06:15;;;;;;;;;;;20.70;99.90;;;;;;8310765;28;19975;-71
2022/06/26 16:10:17;;;;;;;;;;;20.80;99.90;;;;;;8331443;28;20440;-72
2022/06/26 16:14:19;;;;;;;;;;;20.90;99.90;;;;;;8329017;28;19921;-71
2022/06/26 16:18:20;;;;;;;;;;;20.90;99.90;;;;;;8323008;28;19965;-71
2022/06/26 16:26:43;;;;;;;;;;;20.90;99.90;;;;;;8324457;28;20300;-72
2022/06/26 16:30:44;;;;;;;;;;;20.80;99.90;;;;;;8325609;28;20296;-72
2022/06/26 16:34:46;;;;;;;;;;;20.90;99.90;;;;;;8329265;28;19925;-72
2022/06/26 16:38:48;;;;;;;;;;;21.10;99.90;;;;;;8327456;28;19925;-72
2022/06/26 16:42:51;;;;;;;;;;;21.40;99.90;;;;;;8328241;28;19929;-72
2022/06/26 16:46:54;;;;;;;;;;;21.90;99.90;;;;;;8326400;28;20265;-72
2022/06/26 16:50:56;;;;;;;;;;;22.10;99.90;;;;;;8323322;28;20291;-72
2022/06/26 16:54:58;;;;;;;;;;;22.00;99.90;;;;;;8322904;28;19921;-72
2022/06/26 16:59:03;;;;;;;;;;;21.80;99.90;;;;;;8327439;28;20039;-72
2022/06/26 17:03:05;;;;;;;;;;;21.50;99.90;;;;;;8328020;28;20160;-72
2022/06/26 17:07:07;;;;;;;;;;;21.40;99.90;;;;;;8326317;28;19925;-71
2022/06/26 17:11:08;;;;;;;;;;;21.30;99.90;;;;;;8321460;28;19932;-71
2022/06/26 17:15:10;;;;;;;;;;;21.20;99.90;;;;;;8321182;28;20446;-72
2022/06/26 17:19:12;;;;;;;;;;;21.10;99.90;;;;;;8323409;28;19984;-72
2022/06/26 17:23:15;;;;;;;;;;;21.10;99.90;;;;;;8326393;28;19944;-72
2022/06/26 17:27:16;;;;;;;;;;;21.00;99.90;;;;;;8302001;28;20372;-72
2022/06/26 17:31:18;;;;;;;;;;;21.00;99.90;;;;;;8325199;28;20344;-72
2022/06/26 17:35:20;;;;;;;;;;;20.90;99.90;;;;;;8303563;28;20187;-72
2022/06/26 17:39:21;;;;;;;;;;;20.90;99.90;;;;;;8316434;28;19931;-72
2022/06/26 17:43:24;;;;;;;;;;;20.90;99.90;;;;;;8321269;28;19940;-72
2022/06/26 17:51:46;;;;;;;;;;;20.90;99.90;;;;;;8326847;28;20349;-72
2022/06/26 17:55:48;;;;;;;;;;;20.90;99.90;;;;;;8299507;28;19935;-71
2022/06/26 17:59:50;;;;;;;;;;;20.90;99.90;;;;;;8303942;28;19921;-72
2022/06/26 18:03:52;;;;;;;;;;;20.90;99.90;;;;;;8321848;28;20296;-72
2022/06/26 18:07:54;;;;;;;;;;;21.00;99.90;;;;;;8322205;28;19929;-72
2022/06/26 18:11:56;;;;;;;;;;;21.00;99.90;;;;;;8325488;28;19931;-72
2022/06/26 18:16:01;;;;;;;;;;;21.00;99.90;;;;;;8321541;28;19931;-72
2022/06/26 18:20:05;;;;;;;;;;;21.00;99.90;;;;;;8321869;28;20012;-71
2022/06/26 18:24:07;;;;;;;;;;;21.00;99.90;;;;;;8319430;28;19928;-72
2022/06/26 18:28:08;;;;;;;;;;;21.00;99.90;;;;;;8297581;28;19929;-72
2022/06/26 18:32:10;;;;;;;;;;;21.00;99.90;;;;;;8305315;28;19931;-72
2022/06/26 18:36:13;;;;;;;;;;;20.90;99.90;;;;;;8325226;28;19925;-72
2022/06/26 18:40:16;;;;;;;;;;;20.90;99.90;;;;;;8318144;28;19925;-71
2022/06/26 18:44:18;;;;;;;;;;;20.90;99.90;;;;;;8316471;28;19925;-72
2022/06/26 18:48:19;;;;;;;;;;;20.90;99.90;;;;;;8305137;28;20185;-72
2022/06/26 18:52:21;;;;;;;;;;;20.80;99.90;;;;;;8318738;28;19924;-71
2022/06/26 18:56:23;;;;;;;;;;;20.80;99.90;;;;;;8327825;28;19920;-72
2022/06/26 19:00:24;;;;;;;;;;;20.70;99.90;;;;;;8335374;28;19921;-72
2022/06/26 19:04:26;;;;;;;;;;;20.70;99.90;;;;;;8332858;28;19973;-72
2022/06/26 19:08:32;;;;;;;;;;;20.70;99.90;;;;;;8320136;28;20462;-72
2022/06/26 19:16:54;;;;;;;;;;;20.60;99.90;;;;;;8325493;28;19936;-72
2022/06/26 19:20:55;;;;;;;;;;;20.60;99.90;;;;;;8324329;28;19925;-72
2022/06/26 19:24:59;;;;;;;;;;;20.60;99.90;;;;;;8326552;28;20482;-72
2022/06/26 19:29:01;;;;;;;;;;;20.60;99.90;;;;;;8332147;28;19925;-72
2022/06/26 19:33:03;;;;;;;;;;;20.50;99.90;;;;;;8324364;28;19929;-72
2022/06/26 19:37:04;;;;;;;;;;;20.40;99.90;;;;;;8329982;28;20280;-72
2022/06/26 19:41:06;;;;;;;;;;;20.40;99.90;;;;;;8325044;28;20368;-72
2022/06/26 19:45:09;;;;;;;;;;;20.30;99.90;;;;;;8321843;28;19928;-72
2022/06/26 19:50:34;;;;;;;;;;;20.20;99.90;;;;;;8323655;28;19925;-72
2022/06/26 19:53:33;;;;;;;;;;;20.10;99.90;;;;;;8321324;28;19978;-72
2022/06/26 19:57:34;;;;;;;;;;;20.00;99.90;;;;;;8326479;28;19929;-72
2022/06/26 20:01:36;;;;;;;;;;;20.00;99.90;;;;;;8322761;28;19929;-71
2022/06/26 20:05:38;;;;;;;;;;;19.90;99.90;;;;;;8328353;28;19921;-72
2022/06/26 20:09:40;;;;;;;;;;;19.80;99.90;;;;;;8323990;28;20287;-72
2022/06/26 20:13:42;;;;;;;;;;;19.80;99.90;;;;;;8323858;28;19928;-72
2022/06/26 20:17:44;;;;;;;;;;;19.70;99.90;;;;;;8327026;28;19928;-72
2022/06/26 20:21:45;;;;;;;;;;;19.60;99.90;;;;;;8320574;28;19921;-72
2022/06/26 20:25:47;;;;;;;;;;;19.60;99.90;;;;;;8328005;28;19973;-72
2022/06/26 20:29:49;;;;;;;;;;;19.50;99.90;;;;;;8325388;28;19928;-72
2022/06/26 20:33:51;;;;;;;;;;;19.40;99.90;;;;;;8304898;28;20409;-72
2022/06/26 20:37:53;;;;;;;;;;;19.40;99.90;;;;;;8324861;28;20331;-72
2022/06/26 20:41:54;;;;;;;;;;;19.30;99.90;;;;;;8324463;28;19924;-72
2022/06/26 20:46:05;;;;;;;;;;;19.30;99.90;;;;;;8324226;28;19925;-71
2022/06/26 20:50:08;;;;;;;;;;;19.20;99.90;;;;;;8321273;28;20396;-71
2022/06/26 20:54:10;;;;;;;;;;;19.20;99.90;;;;;;8325787;28;19924;-72
2022/06/26 20:58:11;;;;;;;;;;;19.10;99.90;;;;;;8325060;28;19925;-72
2022/06/26 21:02:13;;;;;;;;;;;19.10;99.90;;;;;;8330348;28;19921;-72
2022/06/26 21:06:15;;;;;;;;;;;19.00;99.90;;;;;;8332560;28;19933;-71
2022/06/26 21:10:17;;;;;;;;;;;19.00;99.90;;;;;;8352393;28;19925;-72
2022/06/26 21:14:23;;;;;;;;;;;18.90;99.90;;;;;;8346481;28;19964;-72
2022/06/26 21:18:25;;;;;;;;;;;18.90;99.90;;;;;;8355309;28;19920;-72
2022/06/26 21:22:27;;;;;;;;;;;18.90;99.90;;;;;;8351078;28;19951;-72
2022/06/26 21:26:29;;;;;;;;;;;18.90;99.90;;;;;;8335360;28;19928;-72
2022/06/26 21:30:31;;;;;;;;;;;18.90;99.90;;;;;;8342455;28;19928;-72
2022/06/26 21:34:32;;;;;;;;;;;18.80;99.90;;;;;;8319671;28;19925;-72
2022/06/26 21:38:35;;;;;;;;;;;18.80;99.90;;;;;;8346001;28;19920;-72
2022/06/26 21:42:37;;;;;;;;;;;18.80;99.90;;;;;;8356867;28;19920;-72
2022/06/26 21:46:38;;;;;;;;;;;18.80;99.90;;;;;;8361152;28;19920;-72
2022/06/26 21:50:40;;;;;;;;;;;18.80;99.90;;;;;;8351722;28;19924;-72
2022/06/26 21:54:42;;;;;;;;;;;18.80;99.90;;;;;;8339901;28;20294;-72
2022/06/26 21:58:43;;;;;;;;;;;18.70;99.90;;;;;;8355136;28;19929;-72
2022/06/26 22:02:49;;;;;;;;;;;18.70;99.90;;;;;;8357217;28;19920;-72
2022/06/26 22:06:51;;;;;;;;;;;18.70;99.90;;;;;;8336686;28;19931;-72
2022/06/26 22:10:53;;;;;;;;;;;18.70;99.90;;;;;;8352902;28;19928;-71
2022/06/26 22:14:54;;;;;;;;;;;18.60;99.90;;;;;;8347452;28;19928;-72
2022/06/26 22:18:56;;;;;;;;;;;18.60;99.90;;;;;;8343511;28;20276;-72
2022/06/26 22:22:58;;;;;;;;;;;18.60;99.90;;;;;;8344716;28;19927;-72
2022/06/26 22:31:20;;;;;;;;;;;18.50;99.90;;;;;;8355058;28;21579;-72
2022/06/26 22:35:22;;;;;;;;;;;18.50;99.90;;;;;;8352517;28;19956;-72
2022/06/26 22:39:23;;;;;;;;;;;18.50;99.90;;;;;;8358903;28;20360;-72
2022/06/26 22:43:25;;;;;;;;;;;18.50;99.90;;;;;;8354058;28;20481;-72
2022/06/26 22:47:27;;;;;;;;;;;18.40;99.90;;;;;;8352584;28;19920;-72
2022/06/26 22:51:28;;;;;;;;;;;18.40;99.90;;;;;;8354466;28;19925;-72
2022/06/26 22:55:30;;;;;;;;;;;18.30;99.90;;;;;;8356371;28;19921;-72
2022/06/26 22:59:32;;;;;;;;;;;18.30;99.90;;;;;;8358278;28;19920;-71
2022/06/26 23:03:33;;;;;;;;;;;18.30;99.90;;;;;;8355540;28;19927;-71
2022/06/26 23:07:35;;;;;;;;;;;18.30;99.90;;;;;;8344592;28;20069;-72
2022/06/26 23:11:38;;;;;;;;;;;18.30;99.90;;;;;;8347958;28;19927;-72
2022/06/26 23:15:40;;;;;;;;;;;18.30;99.90;;;;;;8352471;28;19935;-72
2022/06/26 23:19:42;;;;;;;;;;;18.30;99.90;;;;;;8349578;28;19928;-72
2022/06/26 23:23:44;;;;;;;;;;;18.30;99.90;;;;;;8361456;28;19947;-72
2022/06/26 23:27:45;;;;;;;;;;;18.30;99.90;;;;;;8353616;28;20487;-71
2022/06/26 23:31:47;;;;;;;;;;;18.30;99.90;;;;;;8362921;28;20426;-72
2022/06/26 23:35:49;;;;;;;;;;;18.30;99.90;;;;;;8347094;28;19978;-71
2022/06/26 23:39:50;;;;;;;;;;;18.40;99.90;;;;;;8344610;28;19928;-72
2022/06/26 23:43:52;;;;;;;;;;;18.40;99.90;;;;;;8356274;28;19928;-72
2022/06/26 23:47:53;;;;;;;;;;;18.30;99.90;;;;;;8349465;28;19925;-72
2022/06/26 23:51:55;;;;;;;;;;;18.40;99.90;;;;;;8358067;28;19929;-72
2022/06/26 23:55:57;;;;;;;;;;;18.30;99.90;;;;;;8356841;28;19933;-72
2022/06/26 23:59:58;;;;;;;;;;;18.30;99.90;;;;;;8345349;28;20276;-72
